Time;durP1;ratioP1;P1;durP2;ratioP2;P2;SDS_P1;SDS_P2;PMS_P1;PMS_P2;Temp;Humidity;BMP_temperature;BMP_pressure;BME280_temperature;BME280_humidity;BME280_pressure;Samples;Min_cycle;Max_cycle;Signal;HPM_P1;HPM_P2
2022/08/04 00:01:01;;;;;;;3.25;1.30;;;;;28.10;101178.00;;;;5028478;28;20576;-76
2022/08/04 00:03:33;;;;;;;1.83;1.10;;;;;28.10;101174.00;;;;5037508;28;20202;-77
2022/08/04 00:06:03;;;;;;;2.85;1.27;;;;;28.10;101170.00;;;;5047735;28;20214;-77
2022/08/04 00:08:44;;;;;;;2.15;1.40;;;;;27.90;101173.00;;;;5046061;28;20673;-77
2022/08/04 00:11:19;;;;;;;1.65;1.13;;;;;28.00;101162.00;;;;5047710;28;20281;-76
2022/08/04 00:13:53;;;;;;;3.13;1.15;;;;;28.00;101168.00;;;;5039946;28;20199;-76
2022/08/04 00:16:23;;;;;;;2.67;1.27;;;;;28.00;101162.00;;;;5046772;28;20247;-77
2022/08/04 00:18:55;;;;;;;2.53;1.55;;;;;28.00;101164.00;;;;5035937;28;20224;-76
2022/08/04 00:21:24;;;;;;;4.05;1.58;;;;;27.90;101162.00;;;;5042074;28;20195;-76
2022/08/04 00:23:55;;;;;;;4.00;1.40;;;;;27.90;101162.00;;;;5047585;28;20595;-76
2022/08/04 00:26:23;;;;;;;4.47;1.65;;;;;27.90;101154.00;;;;5046531;28;20739;-76
2022/08/04 00:28:51;;;;;;;1.65;1.45;;;;;27.90;101159.00;;;;5046854;28;20689;-76
2022/08/04 00:31:18;;;;;;;2.55;1.40;;;;;27.80;101147.00;;;;5047555;28;20199;-77
2022/08/04 00:33:46;;;;;;;3.47;1.42;;;;;27.80;101154.00;;;;5047232;28;20604;-77
2022/08/04 00:36:14;;;;;;;2.92;1.60;;;;;27.80;101151.00;;;;5036554;28;20207;-76
2022/08/04 00:38:43;;;;;;;1.67;1.15;;;;;27.80;101145.00;;;;5046390;28;20234;-77
2022/08/04 00:41:22;;;;;;;5.85;1.73;;;;;27.70;101147.00;;;;5046130;28;20199;-76
2022/08/04 00:44:08;;;;;;;2.63;1.35;;;;;27.70;101148.00;;;;5040372;28;20199;-76
2022/08/04 00:47:00;;;;;;;1.83;1.42;;;;;27.60;101147.00;;;;5047033;28;20199;-77
2022/08/04 00:49:48;;;;;;;2.50;1.38;;;;;27.60;101146.00;;;;5049140;28;20203;-76
2022/08/04 00:52:28;;;;;;;2.53;1.30;;;;;27.60;101145.00;;;;5044488;28;20197;-76
2022/08/04 00:55:13;;;;;;;2.28;1.10;;;;;27.60;101151.00;;;;5050781;28;20669;-77
2022/08/04 00:58:01;;;;;;;2.17;1.55;;;;;27.60;101139.00;;;;5050675;28;20224;-77
2022/08/04 01:00:32;;;;;;;2.13;1.33;;;;;27.60;101144.00;;;;5050620;28;20216;-77
2022/08/04 01:03:13;;;;;;;3.28;1.63;;;;;27.50;101134.00;;;;5050471;28;20196;-77
2022/08/04 01:05:51;;;;;;;4.70;1.48;;;;;27.50;101138.00;;;;5050299;28;20195;-77
2022/08/04 01:08:46;;;;;;;3.22;1.40;;;;;27.40;101137.00;;;;5049781;28;20203;-77
2022/08/04 01:11:29;;;;;;;2.97;1.35;;;;;27.50;101132.00;;;;5042121;28;20729;-77
2022/08/04 01:14:16;;;;;;;3.50;1.38;;;;;27.50;101132.00;;;;5050177;28;20661;-77
2022/08/04 01:16:48;;;;;;;5.47;1.70;;;;;27.40;101133.00;;;;5050815;28;20219;-77
2022/08/04 01:19:40;;;;;;;2.58;1.52;;;;;27.40;101128.00;;;;5050597;28;20191;-77
2022/08/04 01:22:26;;;;;;;2.88;1.40;;;;;27.40;101127.00;;;;5049603;28;20207;-77
2022/08/04 01:25:07;;;;;;;3.67;1.40;;;;;27.30;101123.00;;;;5031118;28;20564;-77
2022/08/04 01:27:56;;;;;;;1.65;1.23;;;;;27.30;101117.00;;;;5042798;28;20204;-77
2022/08/04 01:30:26;;;;;;;3.42;1.17;;;;;27.30;101118.00;;;;5049337;28;20195;-77
2022/08/04 01:33:00;;;;;;;3.47;1.80;;;;;27.30;101120.00;;;;5045612;28;20569;-77
2022/08/04 01:35:32;;;;;;;5.90;1.60;;;;;27.30;101121.00;;;;5049282;28;20657;-77
2022/08/04 01:38:07;;;;;;;2.67;1.50;;;;;27.20;101120.00;;;;5050043;28;20712;-77
2022/08/04 01:40:37;;;;;;;2.50;1.13;;;;;27.20;101119.00;;;;5049845;28;20685;-77
2022/08/04 01:43:05;;;;;;;3.90;1.30;;;;;27.20;101122.00;;;;5044651;28;20204;-77
2022/08/04 01:45:36;;;;;;;3.35;1.33;;;;;27.20;101119.00;;;;5039881;28;20286;-77
2022/08/04 01:48:06;;;;;;;4.70;1.83;;;;;27.10;101119.00;;;;5050112;28;20207;-77
2022/08/04 01:50:36;;;;;;;1.75;1.30;;;;;27.10;101124.00;;;;5049368;28;20199;-77
2022/08/04 01:53:04;;;;;;;3.72;1.80;;;;;27.10;101116.00;;;;5049553;28;20215;-77
2022/08/04 01:55:33;;;;;;;2.22;1.48;;;;;27.10;101114.00;;;;5049251;28;20196;-77
2022/08/04 01:58:01;;;;;;;2.70;1.40;;;;;27.00;101117.00;;;;5049414;28;20223;-77
2022/08/04 02:00:29;;;;;;;1.60;1.45;;;;;27.00;101122.00;;;;5039994;28;20227;-77
2022/08/04 02:02:58;;;;;;;3.00;1.60;;;;;27.00;101116.00;;;;5037835;28;20689;-77
2022/08/04 02:05:27;;;;;;;6.65;1.70;;;;;27.00;101117.00;;;;5049034;28;20210;-77
2022/08/04 02:08:13;;;;;;;2.50;1.55;;;;;26.80;101123.00;;;;5049955;28;20207;-77
2022/08/04 02:10:56;;;;;;;3.13;1.73;;;;;26.90;101114.00;;;;5049674;28;20200;-77
2022/08/04 02:13:27;;;;;;;4.03;1.92;;;;;26.90;101111.00;;;;5049416;28;20223;-77
2022/08/04 02:16:02;;;;;;;4.45;1.65;;;;;26.80;101110.00;;;;5049517;28;20203;-77
2022/08/04 02:18:33;;;;;;;2.20;1.20;;;;;26.80;101102.00;;;;5044566;28;20709;-77
2022/08/04 02:21:02;;;;;;;5.70;2.30;;;;;26.80;101099.00;;;;5049416;28;20210;-76
2022/08/04 02:23:34;;;;;;;2.05;1.42;;;;;26.80;101094.00;;;;5049109;28;20270;-77
2022/08/04 02:26:04;;;;;;;2.33;1.40;;;;;26.80;101092.00;;;;5049079;28;20212;-77
2022/08/04 02:28:38;;;;;;;3.67;1.60;;;;;26.70;101104.00;;;;5048477;28;20199;-77
2022/08/04 02:31:19;;;;;;;2.42;1.52;;;;;26.70;101103.00;;;;5049200;28;20283;-77
2022/08/04 02:33:55;;;;;;;5.05;2.08;;;;;26.70;101092.00;;;;5046136;28;20230;-77
2022/08/04 02:36:31;;;;;;;4.30;1.30;;;;;26.60;101103.00;;;;5048083;28;20203;-78
2022/08/04 02:39:01;;;;;;;1.98;1.30;;;;;26.70;101102.00;;;;5031830;28;20273;-76
2022/08/04 02:41:30;;;;;;;2.03;1.70;;;;;26.60;101101.00;;;;5048769;28;20674;-77
2022/08/04 02:43:59;;;;;;;3.58;1.42;;;;;26.60;101092.00;;;;5049183;28;20203;-77
2022/08/04 02:46:27;;;;;;;2.47;1.42;;;;;26.60;101102.00;;;;5047539;28;20196;-77
2022/08/04 02:48:56;;;;;;;2.97;1.80;;;;;26.60;101085.00;;;;5048462;28;20203;-77
2022/08/04 02:51:27;;;;;;;3.45;1.52;;;;;26.60;101078.00;;;;5040727;28;20207;-77
2022/08/04 02:53:56;;;;;;;1.70;1.40;;;;;26.60;101081.00;;;;5044974;28;20218;-77
2022/08/04 02:56:25;;;;;;;2.20;1.75;;;;;26.60;101078.00;;;;5047661;28;20199;-76
2022/08/04 02:58:59;;;;;;;3.47;1.88;;;;;26.50;101082.00;;;;5048425;28;20226;-77
2022/08/04 03:01:26;;;;;;;3.15;1.73;;;;;26.50;101077.00;;;;5048389;28;20202;-77
2022/08/04 03:04:13;;;;;;;2.20;1.40;;;;;26.40;101076.00;;;;5048096;28;20676;-77
2022/08/04 03:07:17;;;;;;;3.35;1.48;;;;;26.30;101076.00;;;;5048425;28;20203;-77
2022/08/04 03:10:07;;;;;;;1.58;1.30;;;;;26.30;101075.00;;;;5029723;28;20207;-77
2022/08/04 03:12:57;;;;;;;4.20;1.38;;;;;26.40;101080.00;;;;5039722;28;20195;-77
2022/08/04 03:15:52;;;;;;;2.47;1.60;;;;;26.30;101076.00;;;;5047677;28;20204;-77
2022/08/04 03:19:08;;;;;;;4.38;1.65;;;;;26.30;101066.00;;;;5047518;28;20215;-77
2022/08/04 03:22:08;;;;;;;3.65;1.35;;;;;26.20;101075.00;;;;5038904;28;20192;-77
2022/08/04 03:25:20;;;;;;;3.30;1.52;;;;;26.20;101071.00;;;;5028746;28;20211;-77
2022/08/04 03:28:21;;;;;;;2.20;1.50;;;;;26.20;101070.00;;;;5034420;28;20208;-77
2022/08/04 03:31:10;;;;;;;2.35;1.45;;;;;26.20;101077.00;;;;5047794;28;20211;-77
2022/08/04 03:33:53;;;;;;;3.13;1.65;;;;;26.20;101070.00;;;;5047602;28;20207;-77
2022/08/04 03:36:48;;;;;;;3.33;1.67;;;;;26.10;101065.00;;;;5047680;28;20198;-77
2022/08/04 03:39:49;;;;;;;5.47;1.40;;;;;26.10;101067.00;;;;5046972;28;20222;-77
2022/08/04 03:42:43;;;;;;;2.85;1.30;;;;;26.10;101065.00;;;;5043161;28;20215;-77
2022/08/04 03:45:43;;;;;;;5.85;1.73;;;;;26.10;101064.00;;;;5047584;28;20581;-77
2022/08/04 03:48:40;;;;;;;3.03;1.40;;;;;26.10;101061.00;;;;5001457;28;20222;-77
2022/08/04 03:54:37;;;;;;;3.65;1.80;;;;;26.00;101061.00;;;;5047775;28;20211;-77
2022/08/04 03:57:45;;;;;;;3.35;1.60;;;;;26.00;101056.00;;;;5043976;28;20219;-77
2022/08/04 04:00:16;;;;;;;4.50;1.88;;;;;26.10;101058.00;;;;5037203;28;20211;-77
2022/08/04 04:03:43;;;;;;;1.75;1.55;;;;;25.90;101054.00;;;;5047806;28;20203;-77
2022/08/04 04:06:47;;;;;;;3.03;1.52;;;;;25.90;101056.00;;;;5011526;28;20791;-77
2022/08/04 04:09:41;;;;;;;5.90;1.98;;;;;26.00;101049.00;;;;5047535;28;20195;-77
2022/08/04 04:12:44;;;;;;;2.30;1.77;;;;;25.90;101058.00;;;;5047166;28;20204;-77
2022/08/04 04:15:39;;;;;;;3.67;2.10;;;;;25.90;101059.00;;;;5040922;28;20191;-77
2022/08/04 04:18:33;;;;;;;2.97;1.83;;;;;25.90;101059.00;;;;5039748;28;20219;-77
2022/08/04 04:21:26;;;;;;;3.40;2.00;;;;;25.90;101055.00;;;;5024184;28;20214;-77
2022/08/04 04:24:14;;;;;;;3.50;1.80;;;;;25.90;101060.00;;;;5048388;28;20195;-76
2022/08/04 04:26:54;;;;;;;6.03;1.83;;;;;25.90;101064.00;;;;5051363;28;20228;-77
2022/08/04 04:29:41;;;;;;;2.42;1.65;;;;;25.90;101060.00;;;;5050892;28;20674;-77
2022/08/04 04:32:21;;;;;;;2.03;1.63;;;;;25.90;101060.00;;;;5050847;28;20203;-77
2022/08/04 04:35:01;;;;;;;4.20;1.83;;;;;26.00;101060.00;;;;5038530;28;20192;-77
2022/08/04 04:37:53;;;;;;;2.85;1.92;;;;;25.90;101061.00;;;;5050646;28;20228;-77
2022/08/04 04:40:33;;;;;;;2.58;2.15;;;;;26.00;101064.00;;;;5051051;28;20197;-77
2022/08/04 04:43:15;;;;;;;3.30;1.88;;;;;25.90;101057.00;;;;5051432;28;20195;-77
2022/08/04 04:45:52;;;;;;;4.18;2.08;;;;;26.00;101067.00;;;;5050248;28;20685;-77
2022/08/04 04:48:33;;;;;;;1.83;1.65;;;;;26.00;101065.00;;;;5050478;28;20674;-77
2022/08/04 04:51:10;;;;;;;2.67;1.70;;;;;26.00;101064.00;;;;5050658;28;20211;-77
2022/08/04 04:53:47;;;;;;;2.28;1.77;;;;;26.10;101056.00;;;;5050261;28;20210;-77
2022/08/04 04:56:22;;;;;;;5.47;1.95;;;;;26.10;101062.00;;;;5050479;28;20200;-77
2022/08/04 04:58:52;;;;;;;2.20;1.75;;;;;26.20;101066.00;;;;5050184;28;20245;-77
2022/08/04 05:01:50;;;;;;;3.38;2.40;;;;;26.10;101074.00;;;;5050352;28;20200;-77
2022/08/04 05:04:46;;;;;;;1.90;1.52;;;;;26.10;101073.00;;;;5049748;28;20192;-77
2022/08/04 05:07:39;;;;;;;5.68;1.75;;;;;26.10;101072.00;;;;5050351;28;20188;-77
2022/08/04 05:10:18;;;;;;;4.95;1.63;;;;;26.20;101085.00;;;;5049185;28;20199;-77
2022/08/04 05:13:12;;;;;;;2.88;1.63;;;;;26.20;101087.00;;;;5050030;28;20199;-77
2022/08/04 05:15:43;;;;;;;2.28;1.30;;;;;26.40;101085.00;;;;5030726;28;20200;-77
2022/08/04 05:18:16;;;;;;;3.92;1.55;;;;;26.40;101080.00;;;;5044032;28;20235;-77
2022/08/04 05:20:46;;;;;;;3.72;1.70;;;;;26.50;101082.00;;;;5050216;28;20212;-77
2022/08/04 05:23:16;;;;;;;1.75;1.45;;;;;26.50;101079.00;;;;5050372;28;20199;-77
2022/08/04 05:25:49;;;;;;;4.82;2.10;;;;;26.60;101076.00;;;;5049522;28;20204;-77
2022/08/04 05:28:20;;;;;;;5.57;2.40;;;;;26.60;101082.00;;;;5050091;28;20203;-77
2022/08/04 05:30:53;;;;;;;1.63;1.52;;;;;26.60;101087.00;;;;5050753;28;20226;-77
2022/08/04 05:33:26;;;;;;;2.10;1.60;;;;;26.70;101077.00;;;;5049881;28;20204;-77
2022/08/04 05:35:59;;;;;;;3.30;1.83;;;;;26.70;101083.00;;;;5049413;28;20236;-77
2022/08/04 05:38:31;;;;;;;3.92;1.67;;;;;26.80;101084.00;;;;5049028;28;20247;-77
2022/08/04 05:40:59;;;;;;;2.20;1.90;;;;;26.90;101081.00;;;;5045187;28;20209;-77
2022/08/04 05:43:26;;;;;;;4.82;1.90;;;;;26.90;101082.00;;;;5041917;28;20214;-77
2022/08/04 05:45:56;;;;;;;2.95;2.05;;;;;27.00;101083.00;;;;5049647;28;20194;-77
2022/08/04 05:48:25;;;;;;;2.20;1.52;;;;;27.00;101077.00;;;;5048763;28;20290;-76
2022/08/04 05:50:55;;;;;;;3.40;1.60;;;;;27.10;101079.00;;;;5049210;28;20223;-77
2022/08/04 05:53:24;;;;;;;3.35;1.85;;;;;27.20;101070.00;;;;5049380;28;20196;-77
2022/08/04 05:55:52;;;;;;;2.22;1.60;;;;;27.20;101073.00;;;;5049237;28;20210;-77
2022/08/04 05:58:21;;;;;;;4.90;1.88;;;;;27.30;101073.00;;;;5042296;28;20231;-77
2022/08/04 06:00:49;;;;;;;5.20;1.98;;;;;27.40;101069.00;;;;5044654;28;20219;-77
2022/08/04 06:03:18;;;;;;;3.22;1.40;;;;;27.40;101074.00;;;;5048882;28;20188;-77
2022/08/04 06:05:47;;;;;;;4.97;1.77;;;;;27.50;101070.00;;;;5049004;28;20548;-77
2022/08/04 06:08:16;;;;;;;3.28;1.88;;;;;27.60;101073.00;;;;5049549;28;20226;-77
2022/08/04 06:10:46;;;;;;;3.28;1.90;;;;;27.60;101070.00;;;;5049762;28;20202;-77
2022/08/04 06:13:17;;;;;;;1.73;1.52;;;;;27.70;101068.00;;;;5048928;28;20726;-77
2022/08/04 06:15:47;;;;;;;2.72;1.65;;;;;27.80;101072.00;;;;5038132;28;20200;-77
2022/08/04 06:18:15;;;;;;;3.30;2.00;;;;;27.80;101066.00;;;;5039416;28;20595;-77
2022/08/04 06:20:46;;;;;;;2.55;1.50;;;;;27.90;101064.00;;;;5048788;28;20203;-77
2022/08/04 06:23:19;;;;;;;3.17;1.75;;;;;28.00;101073.00;;;;5045309;28;20192;-77
2022/08/04 06:25:50;;;;;;;2.85;1.70;;;;;28.00;101073.00;;;;5048956;28;20286;-77
2022/08/04 06:28:19;;;;;;;4.30;1.75;;;;;28.10;101078.00;;;;5048362;28;20199;-77
2022/08/04 06:30:49;;;;;;;2.90;1.50;;;;;28.10;101075.00;;;;5049198;28;20195;-77
2022/08/04 06:33:26;;;;;;;4.20;1.45;;;;;28.20;101073.00;;;;5042340;28;20215;-77
2022/08/04 06:35:55;;;;;;;2.17;1.33;;;;;28.20;101071.00;;;;5048446;28;20253;-77
2022/08/04 06:38:25;;;;;;;2.70;1.20;;;;;28.20;101076.00;;;;5048077;28;20231;-77
2022/08/04 06:40:56;;;;;;;2.35;1.08;;;;;28.30;101078.00;;;;5049107;28;20196;-77
2022/08/04 06:43:26;;;;;;;4.22;1.17;;;;;28.30;101082.00;;;;5048733;28;20281;-77
2022/08/04 06:45:56;;;;;;;2.40;1.35;;;;;28.40;101085.00;;;;5048441;28;20199;-78
2022/08/04 06:48:25;;;;;;;1.95;1.13;;;;;28.40;101082.00;;;;5047913;28;20211;-77
2022/08/04 06:50:53;;;;;;;4.20;1.13;;;;;28.40;101085.00;;;;5048282;28;20563;-77
2022/08/04 06:53:20;;;;;;;4.63;1.55;;;;;28.50;101094.00;;;;5048429;28;20219;-77
2022/08/04 06:55:50;;;;;;;4.07;1.90;;;;;28.50;101099.00;;;;5048598;28;20211;-77
2022/08/04 06:58:20;;;;;;;1.50;1.02;;;;;28.50;101102.00;;;;5048670;28;20215;-77
2022/08/04 07:00:49;;;;;;;1.98;1.08;;;;;28.50;101100.00;;;;5048435;28;20223;-77
2022/08/04 07:03:18;;;;;;;4.35;1.48;;;;;28.60;101109.00;;;;5047998;28;20192;-78
2022/08/04 07:05:48;;;;;;;3.45;1.52;;;;;28.60;101108.00;;;;5046967;28;20204;-77
2022/08/04 07:08:15;;;;;;;2.00;1.15;;;;;28.60;101102.00;;;;5048165;28;20204;-77
2022/08/04 07:10:44;;;;;;;1.95;1.33;;;;;28.70;101103.00;;;;5048112;28;20211;-77
2022/08/04 07:13:13;;;;;;;1.40;1.00;;;;;28.70;101105.00;;;;5048486;28;20196;-77
2022/08/04 07:15:44;;;;;;;2.35;1.13;;;;;28.70;101109.00;;;;5048766;28;20839;-77
2022/08/04 07:18:11;;;;;;;3.47;1.30;;;;;28.80;101114.00;;;;5048492;28;20237;-77
2022/08/04 07:20:42;;;;;;;4.85;1.05;;;;;28.80;101106.00;;;;5048302;28;20203;-77
2022/08/04 07:23:12;;;;;;;5.15;1.45;;;;;28.80;101110.00;;;;5042386;28;20215;-77
2022/08/04 07:25:40;;;;;;;5.95;1.50;;;;;28.90;101113.00;;;;5040411;28;20196;-77
2022/08/04 07:28:07;;;;;;;3.83;1.20;;;;;28.90;101120.00;;;;5048488;28;20211;-77
2022/08/04 07:30:36;;;;;;;1.83;1.10;;;;;29.00;101116.00;;;;5048481;28;20199;-77
2022/08/04 07:33:05;;;;;;;3.05;1.20;;;;;29.00;101118.00;;;;5047896;28;20200;-77
2022/08/04 07:35:34;;;;;;;4.07;1.83;;;;;29.10;101113.00;;;;5048123;28;21118;-77
2022/08/04 07:38:01;;;;;;;2.17;1.10;;;;;29.10;101118.00;;;;5047586;28;20196;-78
2022/08/04 07:40:29;;;;;;;3.13;0.90;;;;;29.10;101115.00;;;;5039491;28;20228;-77
2022/08/04 07:42:57;;;;;;;2.05;0.93;;;;;29.20;101121.00;;;;5048084;28;20195;-77
2022/08/04 07:45:25;;;;;;;1.98;1.10;;;;;29.20;101123.00;;;;5047636;28;20196;-77
2022/08/04 07:47:53;;;;;;;2.05;0.90;;;;;29.20;101125.00;;;;5047626;28;20207;-77
2022/08/04 07:50:21;;;;;;;4.95;0.70;;;;;29.30;101118.00;;;;5047853;28;20199;-77
2022/08/04 07:52:48;;;;;;;3.13;0.90;;;;;29.30;101121.00;;;;5047743;28;20200;-78
2022/08/04 07:55:16;;;;;;;2.75;0.90;;;;;29.30;101120.00;;;;5047538;28;20191;-77
2022/08/04 07:57:44;;;;;;;3.50;1.10;;;;;29.40;101122.00;;;;5041780;28;20732;-78
2022/08/04 08:00:13;;;;;;;2.85;1.35;;;;;29.40;101127.00;;;;5051585;28;20258;-77
2022/08/04 08:02:42;;;;;;;5.40;1.50;;;;;29.50;101132.00;;;;5051572;28;20218;-77
2022/08/04 08:05:15;;;;;;;1.75;1.00;;;;;29.50;101138.00;;;;5052757;28;20593;-78
2022/08/04 08:07:44;;;;;;;2.38;0.80;;;;;29.60;101135.00;;;;5052631;28;20199;-78
2022/08/04 08:10:13;;;;;;;4.55;1.23;;;;;29.60;101137.00;;;;5052717;28;20211;-77
2022/08/04 08:12:40;;;;;;;3.90;1.30;;;;;29.70;101138.00;;;;5051133;28;20200;-78
2022/08/04 08:15:11;;;;;;;5.22;1.10;;;;;29.80;101135.00;;;;5037959;28;20674;-78
2022/08/04 08:17:39;;;;;;;2.33;1.00;;;;;29.90;101142.00;;;;5037075;28;20241;-78
2022/08/04 08:20:09;;;;;;;3.33;1.15;;;;;30.00;101147.00;;;;5051353;28;20631;-78
2022/08/04 08:22:38;;;;;;;2.95;0.80;;;;;30.10;101144.00;;;;5051415;28;20199;-78
2022/08/04 08:25:06;;;;;;;5.32;1.20;;;;;30.10;101136.00;;;;5052322;28;20215;-78
2022/08/04 08:27:34;;;;;;;3.22;1.33;;;;;30.20;101136.00;;;;5051002;28;20211;-78
2022/08/04 08:30:01;;;;;;;2.88;0.98;;;;;30.30;101136.00;;;;5050943;28;20199;-78
2022/08/04 08:32:29;;;;;;;1.60;0.80;;;;;30.40;101139.00;;;;5046366;28;20195;-78
2022/08/04 08:34:56;;;;;;;4.05;1.27;;;;;30.40;101135.00;;;;5051675;28;20203;-78
2022/08/04 08:37:30;;;;;;;7.13;0.90;;;;;30.50;101137.00;;;;5050953;28;20207;-78
2022/08/04 08:40:13;;;;;;;0.93;0.80;;;;;30.70;101136.00;;;;5051083;28;20257;-78
2022/08/04 08:43:00;;;;;;;4.65;1.23;;;;;30.80;101146.00;;;;5050108;28;20187;-78
2022/08/04 08:45:53;;;;;;;2.88;1.13;;;;;30.90;101145.00;;;;5050985;28;20269;-78
2022/08/04 08:48:59;;;;;;;1.20;0.82;;;;;31.10;101143.00;;;;5043218;28;20546;-78
2022/08/04 08:51:40;;;;;;;3.45;1.20;;;;;31.30;101141.00;;;;5039546;28;20673;-78
2022/08/04 08:54:37;;;;;;;2.38;0.95;;;;;31.40;101145.00;;;;5050634;28;20199;-77
2022/08/04 08:57:22;;;;;;;3.03;1.20;;;;;31.50;101142.00;;;;5050775;28;20238;-78
2022/08/04 09:00:00;;;;;;;1.80;1.20;;;;;31.60;101156.00;;;;5050588;28;20862;-78
2022/08/04 09:02:58;;;;;;;3.50;0.82;;;;;31.70;101153.00;;;;5049841;28;20199;-78
2022/08/04 09:05:42;;;;;;;2.60;0.90;;;;;31.90;101162.00;;;;5041324;28;20200;-78
2022/08/04 09:08:22;;;;;;;1.15;0.75;;;;;32.00;101162.00;;;;5034431;28;20581;-78
2022/08/04 09:10:53;;;;;;;4.68;0.90;;;;;32.20;101165.00;;;;5049851;28;20196;-78
2022/08/04 09:13:26;;;;;;;4.15;1.20;;;;;32.20;101166.00;;;;5049926;28;20194;-78
2022/08/04 09:16:02;;;;;;;4.60;1.60;;;;;32.40;101166.00;;;;5050626;28;20233;-78
2022/08/04 09:18:36;;;;;;;2.05;1.10;;;;;32.50;101161.00;;;;5050299;28;20195;-78
2022/08/04 09:21:12;;;;;;;1.25;0.70;;;;;32.60;101158.00;;;;5049949;28;20719;-78
2022/08/04 09:23:51;;;;;;;1.25;0.80;;;;;32.60;101161.00;;;;5044557;28;20203;-78
2022/08/04 09:26:27;;;;;;;2.55;1.00;;;;;32.70;101166.00;;;;5050141;28;20195;-78
2022/08/04 09:29:07;;;;;;;3.22;0.82;;;;;32.70;101168.00;;;;5049990;28;20577;-78
2022/08/04 09:31:38;;;;;;;1.98;0.98;;;;;32.80;101160.00;;;;5048867;28;20556;-78
2022/08/04 09:34:18;;;;;;;1.70;0.82;;;;;32.90;101176.00;;;;5049570;28;20994;-78
2022/08/04 09:36:52;;;;;;;2.00;0.98;;;;;33.00;101181.00;;;;5049394;28;20195;-78
2022/08/04 09:39:26;;;;;;;2.17;0.85;;;;;33.00;101178.00;;;;5047220;28;20677;-78
2022/08/04 09:42:03;;;;;;;2.60;1.02;;;;;33.10;101183.00;;;;5049694;28;20195;-78
2022/08/04 09:44:44;;;;;;;0.77;0.70;;;;;33.20;101190.00;;;;5049860;28;20199;-78
2022/08/04 09:47:16;;;;;;;3.10;1.02;;;;;33.30;101208.00;;;;5049836;28;20293;-78
2022/08/04 09:49:52;;;;;;;2.63;0.98;;;;;33.20;101208.00;;;;5049948;28;20207;-78
2022/08/04 09:52:28;;;;;;;1.23;0.90;;;;;33.20;101207.00;;;;5048982;28;20202;-78
2022/08/04 09:55:05;;;;;;;1.88;0.85;;;;;33.20;101205.00;;;;5049827;28;20191;-78
2022/08/04 09:57:45;;;;;;;2.20;0.77;;;;;33.20;101210.00;;;;5034766;28;20260;-77
2022/08/04 10:00:15;;;;;;;8.63;1.10;;;;;33.20;101216.00;;;;5048877;28;20226;-76
2022/08/04 10:02:48;;;;;;;4.03;1.10;;;;;33.20;101214.00;;;;5049314;28;20207;-77
2022/08/04 10:05:20;;;;;;;2.95;1.10;;;;;33.10;101214.00;;;;5048872;28;20199;-76
2022/08/04 10:08:12;;;;;;;2.50;0.75;;;;;33.00;101225.00;;;;5049074;28;20662;-76
2022/08/04 10:10:49;;;;;;;7.18;0.95;;;;;33.00;101237.00;;;;5049124;28;20563;-76
2022/08/04 10:13:31;;;;;;;2.88;0.70;;;;;32.90;101225.00;;;;5035083;28;20249;-76
2022/08/04 10:16:16;;;;;;;1.80;0.60;;;;;32.80;101234.00;;;;5049013;28;20204;-76
2022/08/04 10:18:57;;;;;;;1.80;1.02;;;;;32.70;101226.00;;;;5048718;28;20210;-77
2022/08/04 10:21:31;;;;;;;1.13;0.85;;;;;32.60;101233.00;;;;5047397;28;20648;-76
2022/08/04 10:24:14;;;;;;;2.97;0.90;;;;;32.50;101251.00;;;;5048909;28;20637;-76
2022/08/04 10:26:48;;;;;;;2.10;1.00;;;;;32.50;101261.00;;;;5049299;28;20662;-76
2022/08/04 10:29:19;;;;;;;1.00;0.77;;;;;32.40;101265.00;;;;5049862;28;20204;-76
2022/08/04 10:31:57;;;;;;;2.00;0.70;;;;;32.30;101256.00;;;;5044018;28;20278;-77
2022/08/04 10:34:28;;;;;;;1.25;0.80;;;;;32.20;101261.00;;;;5047486;28;20199;-77
2022/08/04 10:37:03;;;;;;;0.77;0.68;;;;;32.20;101265.00;;;;5049036;28;20665;-76
2022/08/04 10:39:40;;;;;;;2.78;0.80;;;;;32.10;101263.00;;;;5048841;28;20328;-76
2022/08/04 10:42:19;;;;;;;1.45;0.70;;;;;32.00;101265.00;;;;5048942;28;20199;-76
2022/08/04 10:45:00;;;;;;;1.20;0.82;;;;;31.90;101258.00;;;;5048488;28;20688;-77
2022/08/04 10:47:37;;;;;;;1.30;0.73;;;;;31.80;101250.00;;;;5039794;28;20290;-76
2022/08/04 10:50:10;;;;;;;2.22;0.77;;;;;31.80;101263.00;;;;5048359;28;20204;-77
2022/08/04 10:52:44;;;;;;;1.63;1.30;;;;;31.70;101291.00;;;;5047816;28;20270;-76
2022/08/04 10:55:17;;;;;;;2.40;0.70;;;;;31.60;101280.00;;;;5048535;28;20206;-77
2022/08/04 10:57:49;;;;;;;3.20;1.00;;;;;31.60;101285.00;;;;5045407;28;20223;-77
2022/08/04 11:00:22;;;;;;;2.53;1.27;;;;;31.50;101275.00;;;;5047580;28;20232;-77
2022/08/04 11:02:58;;;;;;;1.00;0.77;;;;;31.40;101288.00;;;;5048507;28;20195;-76
2022/08/04 11:05:30;;;;;;;2.72;0.82;;;;;31.40;101299.00;;;;5047025;28;20215;-77
2022/08/04 11:08:03;;;;;;;1.27;0.77;;;;;31.30;101303.00;;;;5048210;28;20207;-77
2022/08/04 11:10:35;;;;;;;1.50;0.80;;;;;31.30;101299.00;;;;5045192;28;20230;-76
2022/08/04 11:13:06;;;;;;;1.15;0.80;;;;;31.20;101284.00;;;;5048521;28;20286;-77
2022/08/04 11:15:37;;;;;;;1.00;0.70;;;;;31.20;101280.00;;;;5048001;28;20200;-77
2022/08/04 11:18:13;;;;;;;1.60;0.80;;;;;31.10;101277.00;;;;5048081;28;20207;-77
2022/08/04 11:20:47;;;;;;;0.82;0.75;;;;;31.10;101273.00;;;;5045876;28;20523;-77
2022/08/04 11:23:17;;;;;;;1.80;0.88;;;;;31.10;101260.00;;;;5037401;28;20669;-77
2022/08/04 11:25:54;;;;;;;3.50;1.05;;;;;31.00;101248.00;;;;5047342;28;20204;-77
2022/08/04 11:28:31;;;;;;;1.00;0.70;;;;;31.00;101244.00;;;;5047247;28;20207;-77
2022/08/04 11:31:04;;;;;;;1.40;0.90;;;;;31.00;101246.00;;;;5047850;28;20198;-77
2022/08/04 11:33:41;;;;;;;2.72;1.00;;;;;31.00;101236.00;;;;5046640;28;20206;-77
2022/08/04 11:36:15;;;;;;;2.08;0.77;;;;;31.00;101237.00;;;;5047477;28;20199;-77
2022/08/04 11:38:49;;;;;;;2.10;1.08;;;;;31.00;101251.00;;;;5028524;28;20391;-77
2022/08/04 11:41:20;;;;;;;2.53;0.73;;;;;31.10;101256.00;;;;5043179;28;20230;-77
2022/08/04 11:43:55;;;;;;;2.47;1.38;;;;;31.20;101258.00;;;;5047711;28;20200;-77
2022/08/04 11:46:28;;;;;;;1.95;1.17;;;;;31.20;101265.00;;;;5047128;28;20211;-77
2022/08/04 11:49:05;;;;;;;1.60;1.00;;;;;31.30;101260.00;;;;5042152;28;20199;-77
2022/08/04 11:51:34;;;;;;;1.63;1.17;;;;;31.40;101263.00;;;;5046942;28;20745;-77
2022/08/04 11:54:02;;;;;;;3.78;1.30;;;;;31.50;101251.00;;;;5047545;28;20203;-77
2022/08/04 11:56:30;;;;;;;1.45;0.68;;;;;31.60;101244.00;;;;5040147;28;20492;-77
2022/08/04 11:58:59;;;;;;;1.25;1.08;;;;;31.70;101245.00;;;;5047249;28;20191;-77
2022/08/04 12:01:36;;;;;;;1.55;1.00;;;;;31.70;101244.00;;;;5047428;28;20223;-77
2022/08/04 12:04:11;;;;;;;1.30;1.00;;;;;31.80;101239.00;;;;5047384;28;20291;-77
2022/08/04 12:06:47;;;;;;;2.30;1.00;;;;;31.80;101238.00;;;;5047041;28;20704;-76
2022/08/04 12:09:27;;;;;;;0.88;0.82;;;;;31.90;101241.00;;;;5046542;28;20289;-77
2022/08/04 12:12:02;;;;;;;2.90;1.48;;;;;32.00;101251.00;;;;5044246;28;20223;-77
2022/08/04 12:14:40;;;;;;;2.88;1.23;;;;;32.10;101238.00;;;;5046533;28;20706;-77
2022/08/04 12:17:08;;;;;;;1.42;0.90;;;;;32.20;101246.00;;;;5048330;28;20903;-77
2022/08/04 12:19:44;;;;;;;3.08;1.13;;;;;32.30;101258.00;;;;5027485;28;20236;-77
2022/08/04 12:22:16;;;;;;;2.05;0.77;;;;;32.30;101257.00;;;;5042705;28;20198;-77
2022/08/04 12:24:46;;;;;;;1.13;0.63;;;;;32.40;101260.00;;;;5047529;28;20214;-77
2022/08/04 12:27:18;;;;;;;1.23;0.90;;;;;32.50;101265.00;;;;5047567;28;20207;-77
2022/08/04 12:29:46;;;;;;;1.45;0.80;;;;;32.60;101261.00;;;;5036580;28;20204;-77
2022/08/04 12:32:27;;;;;;;2.55;1.10;;;;;32.60;101264.00;;;;5027745;28;20980;-77
2022/08/04 12:35:08;;;;;;;1.55;0.95;;;;;32.70;101274.00;;;;5046787;28;20191;-77
2022/08/04 12:37:43;;;;;;;2.00;0.90;;;;;32.70;101264.00;;;;5046800;28;20199;-77
2022/08/04 12:40:17;;;;;;;1.23;1.00;;;;;32.80;101261.00;;;;5048080;28;20563;-77
2022/08/04 12:42:52;;;;;;;2.65;0.60;;;;;32.90;101267.00;;;;5047796;28;20196;-77
2022/08/04 12:45:21;;;;;;;2.15;0.70;;;;;33.00;101267.00;;;;5049513;28;20197;-78
2022/08/04 12:47:50;;;;;;;1.08;0.73;;;;;33.00;101259.00;;;;5037186;28;20198;-77
2022/08/04 12:50:20;;;;;;;0.90;0.75;;;;;33.00;101259.00;;;;5051299;28;20562;-77
2022/08/04 12:52:49;;;;;;;1.25;0.75;;;;;33.10;101259.00;;;;5042451;28;20592;-78
2022/08/04 12:55:20;;;;;;;0.93;0.90;;;;;33.10;101254.00;;;;5051048;28;20264;-78